createdAt,value
2023-05-10T00:00:19.229Z,25.00
2023-05-10T00:01:19.002Z,25.00
2023-05-10T00:02:19.095Z,25.00
2023-05-10T00:03:19.117Z,0.00
2023-05-10T00:04:19.176Z,0.00
2023-05-10T00:05:19.044Z,0.00
2023-05-10T00:06:19.054Z,0.00
2023-05-10T00:07:19.075Z,0.00
2023-05-10T00:08:19.092Z,5.46
2023-05-10T00:09:19.098Z,20.06
2023-05-10T00:10:19.281Z,25.00
2023-05-10T00:11:20.899Z,26.12
2023-05-10T00:12:19.127Z,21.48
2023-05-10T00:13:19.193Z,10.11
2023-05-10T00:14:19.085Z,1.31
2023-05-10T00:15:19.077Z,0.00
2023-05-10T00:16:19.121Z,0.00
2023-05-10T00:17:19.042Z,11.43
2023-05-10T00:18:19.036Z,25.01
2023-05-10T00:19:19.051Z,26.05
2023-05-10T00:20:19.343Z,25.00
2023-05-10T00:21:19.007Z,25.40
2023-05-10T00:22:19.006Z,27.10
2023-05-10T00:23:19.013Z,25.16
2023-05-10T00:24:18.992Z,25.00
2023-05-10T00:25:19.002Z,28.45
2023-05-10T00:26:19.032Z,27.79
2023-05-10T00:27:18.981Z,25.46
2023-05-10T00:28:19.038Z,25.00
2023-05-10T00:29:19.005Z,28.82
2023-05-10T00:30:19.212Z,25.00
2023-05-10T00:31:18.972Z,25.00
2023-05-10T00:32:19.122Z,32.60
2023-05-10T00:33:18.969Z,26.80
2023-05-10T00:34:18.970Z,26.97
2023-05-10T00:35:18.969Z,28.42
2023-05-10T00:36:18.968Z,25.73
2023-05-10T00:37:18.949Z,28.98
2023-05-10T00:38:18.981Z,29.42
2023-05-10T00:39:18.945Z,26.00
2023-05-10T00:40:19.191Z,28.72
2023-05-10T00:41:18.922Z,29.49
2023-05-10T00:42:18.892Z,28.99
2023-05-10T00:43:18.903Z,26.64
2023-05-10T00:44:18.890Z,29.36
2023-05-10T00:45:18.897Z,28.14
2023-05-10T00:46:18.897Z,28.26
2023-05-10T00:47:18.864Z,30.89
2023-05-10T00:48:18.913Z,27.74
2023-05-10T00:49:18.853Z,28.84
2023-05-10T00:50:19.046Z,30.05
2023-05-10T00:51:18.811Z,27.73
2023-05-10T00:52:18.799Z,30.31
2023-05-10T00:53:18.841Z,25.00
2023-05-10T00:54:18.788Z,30.93
2023-05-10T00:55:18.783Z,28.04
2023-05-10T00:56:18.774Z,27.81
2023-05-10T00:57:18.762Z,26.88
2023-05-10T00:58:18.794Z,25.73
2023-05-10T00:59:18.769Z,27.23
2023-05-10T01:00:18.778Z,27.32
2023-05-10T01:01:18.818Z,27.43
2023-05-10T01:02:18.756Z,25.00
2023-05-10T01:03:18.781Z,29.73
2023-05-10T01:04:18.770Z,30.49
2023-05-10T01:05:18.911Z,31.38
2023-05-10T01:06:18.702Z,28.35
2023-05-10T01:07:18.699Z,30.19
2023-05-10T01:08:18.721Z,27.25
2023-05-10T01:09:18.686Z,25.99
2023-05-10T01:10:18.857Z,28.25
2023-05-10T01:11:18.685Z,26.75
2023-05-10T01:12:18.665Z,29.23
2023-05-10T01:13:18.723Z,25.50
2023-05-10T01:14:18.729Z,29.52
2023-05-10T01:15:18.730Z,26.25
2023-05-10T01:16:18.799Z,29.62
2023-05-10T01:17:18.816Z,31.55
2023-05-10T01:18:18.795Z,32.35
2023-05-10T01:19:18.809Z,28.65
2023-05-10T01:20:19.204Z,28.30
2023-05-10T01:21:18.863Z,31.37
2023-05-10T01:22:18.881Z,28.45
2023-05-10T01:23:18.909Z,28.41
2023-05-10T01:24:18.933Z,30.45
2023-05-10T01:25:18.950Z,29.93
2023-05-10T01:26:18.975Z,26.98
2023-05-10T01:27:18.996Z,27.04
2023-05-10T01:28:19.018Z,26.33
2023-05-10T01:29:19.045Z,30.73
2023-05-10T01:30:19.059Z,28.41
2023-05-10T01:31:19.146Z,28.43
2023-05-10T01:32:19.115Z,31.56
2023-05-10T01:33:19.181Z,28.04
2023-05-10T01:34:19.167Z,28.00
2023-05-10T01:35:19.191Z,30.92
2023-05-10T01:36:19.222Z,28.41
2023-05-10T01:37:19.244Z,29.83
2023-05-10T01:38:19.268Z,30.71
2023-05-10T01:39:19.278Z,30.43
2023-05-10T01:40:19.307Z,30.69
2023-05-10T01:41:19.321Z,32.73
2023-05-10T01:42:19.343Z,30.83
2023-05-10T01:43:19.363Z,29.36
2023-05-10T01:44:19.405Z,30.08
2023-05-10T01:45:19.423Z,31.54
2023-05-10T01:46:19.503Z,32.99
2023-05-10T01:47:19.522Z,33.70
2023-05-10T01:48:19.523Z,31.54
2023-05-10T01:49:19.652Z,31.79
2023-05-10T01:50:19.788Z,28.71
2023-05-10T01:51:19.610Z,31.57
2023-05-10T01:52:19.601Z,30.25
2023-05-10T01:53:19.642Z,30.87
2023-05-10T01:54:19.687Z,34.31
2023-05-10T01:55:19.699Z,31.22
2023-05-10T01:56:19.705Z,28.95
2023-05-10T01:57:19.725Z,28.60
2023-05-10T01:58:19.753Z,29.10
2023-05-10T01:59:19.779Z,27.33
2023-05-10T02:00:19.808Z,30.62
2023-05-10T02:01:19.960Z,30.47
2023-05-10T02:02:19.852Z,32.87
2023-05-10T02:03:19.908Z,31.48
2023-05-10T02:04:19.919Z,32.58
2023-05-10T02:05:19.957Z,31.46
2023-05-10T02:06:19.936Z,31.12
2023-05-10T02:07:19.979Z,31.19
2023-05-10T02:08:19.990Z,31.68
2023-05-10T02:09:20.007Z,31.00
2023-05-10T02:10:20.024Z,25.62
2023-05-10T02:11:20.066Z,33.05
2023-05-10T02:12:20.091Z,27.89
2023-05-10T02:13:20.132Z,32.95
2023-05-10T02:14:20.119Z,32.80
2023-05-10T02:15:20.126Z,31.72
2023-05-10T02:16:20.182Z,28.41
2023-05-10T02:17:20.178Z,31.45
2023-05-10T02:18:20.185Z,30.67
2023-05-10T02:19:20.217Z,30.69
2023-05-10T02:20:20.410Z,31.85
2023-05-10T02:21:20.309Z,32.23
2023-05-10T02:22:20.268Z,31.79
2023-05-10T02:23:20.295Z,32.69
2023-05-10T02:24:20.322Z,33.23
2023-05-10T02:25:20.340Z,30.21
2023-05-10T02:26:20.367Z,29.56
2023-05-10T02:27:20.387Z,30.80
2023-05-10T02:28:20.448Z,28.73
2023-05-10T02:29:20.496Z,33.06
2023-05-10T02:30:20.467Z,32.83
2023-05-10T02:31:20.522Z,34.46
2023-05-10T02:32:20.508Z,33.45
2023-05-10T02:33:20.523Z,30.45
2023-05-10T02:34:20.552Z,31.93
2023-05-10T02:35:20.569Z,32.86
2023-05-10T02:36:20.598Z,32.68
2023-05-10T02:37:20.650Z,32.44
2023-05-10T02:38:20.675Z,32.35
2023-05-10T02:39:20.723Z,31.64
2023-05-10T02:40:20.697Z,32.74
2023-05-10T02:41:20.753Z,34.17
2023-05-10T02:42:20.742Z,31.24
2023-05-10T02:43:20.796Z,32.42
2023-05-10T02:44:20.798Z,30.73
2023-05-10T02:45:20.833Z,32.40
2023-05-10T02:46:20.901Z,31.58
2023-05-10T02:47:20.877Z,33.56
2023-05-10T02:48:20.898Z,31.38
2023-05-10T02:49:20.921Z,30.33
2023-05-10T02:50:20.938Z,32.01
2023-05-10T02:51:20.979Z,30.74
2023-05-10T02:52:20.986Z,28.73
2023-05-10T02:53:21.059Z,31.07
2023-05-10T02:54:21.026Z,29.27
2023-05-10T02:55:21.058Z,31.50
2023-05-10T02:56:21.056Z,29.18
2023-05-10T02:57:21.089Z,32.42
2023-05-10T02:58:21.124Z,32.29
2023-05-10T02:59:21.106Z,32.73
2023-05-10T03:00:21.122Z,30.65
2023-05-10T03:01:21.191Z,30.39
2023-05-10T03:02:21.227Z,26.87
2023-05-10T03:03:21.189Z,33.09
2023-05-10T03:04:21.247Z,31.70
2023-05-10T03:05:21.232Z,30.99
2023-05-10T03:06:21.254Z,31.35
2023-05-10T03:07:21.276Z,32.94
2023-05-10T03:08:21.333Z,33.77
2023-05-10T03:09:21.348Z,31.94
2023-05-10T03:10:21.361Z,32.62
2023-05-10T03:11:21.374Z,31.32
2023-05-10T03:12:21.400Z,31.69
2023-05-10T03:13:21.485Z,31.40
2023-05-10T03:14:21.454Z,32.71
2023-05-10T03:15:21.475Z,29.66
2023-05-10T03:16:21.614Z,31.02
2023-05-10T03:17:21.551Z,30.02
2023-05-10T03:18:21.551Z,29.97
2023-05-10T03:19:21.579Z,32.07
2023-05-10T03:20:21.598Z,32.49
2023-05-10T03:21:21.632Z,31.65
2023-05-10T03:22:21.652Z,30.74
2023-05-10T03:23:21.684Z,34.98
2023-05-10T03:24:21.702Z,30.12
2023-05-10T03:25:21.749Z,30.89
2023-05-10T03:26:21.756Z,30.86
2023-05-10T03:27:21.777Z,30.78
2023-05-10T03:28:21.811Z,30.04
2023-05-10T03:29:21.833Z,30.81
2023-05-10T03:30:21.860Z,30.19
2023-05-10T03:31:21.946Z,32.31
2023-05-10T03:32:21.944Z,32.39
2023-05-10T03:33:21.913Z,31.55
2023-05-10T03:34:21.936Z,30.44
2023-05-10T03:35:21.969Z,31.65
2023-05-10T03:36:21.987Z,33.65
2023-05-10T03:37:22.012Z,32.34
2023-05-10T03:38:22.067Z,30.27
2023-05-10T03:39:22.065Z,31.78
2023-05-10T03:40:22.105Z,30.78
2023-05-10T03:41:22.151Z,29.57
2023-05-10T03:42:22.156Z,32.82
2023-05-10T03:43:22.176Z,30.83
2023-05-10T03:44:22.207Z,31.68
2023-05-10T03:45:22.243Z,32.70
2023-05-10T03:46:22.290Z,32.30
2023-05-10T03:47:22.308Z,31.78
2023-05-10T03:48:22.342Z,31.62
2023-05-10T03:49:22.368Z,31.80
2023-05-10T03:50:22.425Z,30.59
2023-05-10T03:51:22.435Z,31.97
2023-05-10T03:52:22.466Z,31.15
2023-05-10T03:53:22.485Z,31.57
2023-05-10T03:54:22.521Z,31.30
2023-05-10T03:55:22.538Z,27.86
2023-05-10T03:56:22.575Z,32.13
2023-05-10T03:57:22.643Z,29.56
2023-05-10T03:58:22.648Z,30.57
2023-05-10T03:59:22.676Z,30.62
2023-05-10T04:00:22.706Z,28.62
2023-05-10T04:01:22.738Z,29.95
2023-05-10T04:02:22.843Z,31.17
2023-05-10T04:03:22.825Z,29.14
2023-05-10T04:04:22.825Z,28.46
2023-05-10T04:05:22.846Z,31.08
2023-05-10T04:06:22.926Z,30.18
2023-05-10T04:07:22.912Z,30.03
2023-05-10T04:08:22.993Z,27.85
2023-05-10T04:09:22.956Z,31.74
2023-05-10T04:10:22.980Z,30.94
2023-05-10T04:11:23.051Z,27.04
2023-05-10T04:12:23.053Z,28.49
2023-05-10T04:13:23.228Z,30.58
2023-05-10T04:14:23.125Z,31.76
2023-05-10T04:15:23.154Z,30.26
2023-05-10T04:16:23.211Z,29.84
2023-05-10T04:17:23.253Z,32.47
2023-05-10T04:18:23.256Z,28.93
2023-05-10T04:19:23.292Z,30.39
2023-05-10T04:20:23.318Z,29.29
2023-05-10T04:21:23.351Z,29.15
2023-05-10T04:22:23.390Z,27.53
2023-05-10T04:23:23.450Z,32.35
2023-05-10T04:24:23.459Z,27.70
2023-05-10T04:25:23.474Z,32.53
2023-05-10T04:26:23.512Z,30.05
2023-05-10T04:27:23.542Z,30.80
2023-05-10T04:28:23.573Z,29.50
2023-05-10T04:29:23.633Z,28.76
2023-05-10T04:30:23.633Z,30.32
2023-05-10T04:31:23.748Z,29.40
2023-05-10T04:32:23.722Z,31.67
2023-05-10T04:33:23.730Z,30.67
2023-05-10T04:34:23.772Z,29.99
2023-05-10T04:35:23.798Z,30.95
2023-05-10T04:36:23.838Z,30.81
2023-05-10T04:37:23.907Z,30.31
2023-05-10T04:38:23.900Z,29.01
2023-05-10T04:39:23.938Z,28.69
2023-05-10T04:40:23.972Z,27.27
2023-05-10T04:41:24.008Z,28.05
2023-05-10T04:42:24.032Z,32.93
2023-05-10T04:43:24.065Z,31.33
2023-05-10T04:44:24.103Z,29.71
2023-05-10T04:45:24.184Z,29.28
2023-05-10T04:46:24.234Z,28.95
2023-05-10T04:47:24.232Z,30.57
2023-05-10T04:48:24.259Z,31.75
2023-05-10T04:49:24.674Z,28.93
2023-05-10T04:50:24.335Z,31.37
2023-05-10T04:51:24.361Z,30.23
2023-05-10T04:52:24.394Z,30.98
2023-05-10T04:53:24.419Z,28.83
2023-05-10T04:54:24.493Z,29.99
2023-05-10T04:55:24.500Z,31.65
2023-05-10T04:56:24.537Z,30.79
2023-05-10T04:57:24.588Z,29.68
2023-05-10T04:58:24.611Z,29.80
2023-05-10T04:59:24.676Z,28.36
2023-05-10T05:00:24.691Z,30.25
2023-05-10T05:01:24.791Z,28.04
2023-05-10T05:02:24.812Z,28.40
2023-05-10T05:03:24.824Z,29.33
2023-05-10T05:04:24.838Z,28.74
2023-05-10T05:05:24.869Z,31.20
2023-05-10T05:06:24.902Z,28.42
2023-05-10T05:07:24.943Z,29.96
2023-05-10T05:08:25.023Z,27.25
2023-05-10T05:09:25.027Z,30.60
2023-05-10T05:10:25.061Z,29.94
2023-05-10T05:11:25.091Z,28.04
2023-05-10T05:12:25.124Z,32.85
2023-05-10T05:13:25.274Z,29.63
2023-05-10T05:14:25.196Z,29.04
2023-05-10T05:15:25.233Z,27.36
2023-05-10T05:16:25.277Z,30.32
2023-05-10T05:17:25.316Z,28.32
2023-05-10T05:18:25.326Z,29.48
2023-05-10T05:19:25.677Z,28.39
2023-05-10T05:20:25.426Z,29.30
2023-05-10T05:21:25.431Z,27.33
2023-05-10T05:22:25.484Z,29.97
2023-05-10T05:23:25.506Z,29.86
2023-05-10T05:24:25.542Z,28.22
2023-05-10T05:25:25.569Z,29.63
2023-05-10T05:26:25.616Z,29.51
2023-05-10T05:27:25.649Z,30.18
2023-05-10T05:28:25.681Z,31.08
2023-05-10T05:29:25.717Z,29.49
2023-05-10T05:30:25.747Z,29.80
2023-05-10T05:31:25.796Z,33.13
2023-05-10T05:32:25.828Z,34.38
2023-05-10T05:33:25.862Z,34.36
2023-05-10T05:34:25.862Z,34.24
2023-05-10T05:35:25.904Z,33.82
2023-05-10T05:36:25.998Z,36.09
2023-05-10T05:37:25.984Z,32.04
2023-05-10T05:38:26.007Z,35.64
2023-05-10T05:39:26.017Z,39.02
2023-05-10T05:40:26.047Z,36.39
2023-05-10T05:41:26.071Z,36.49
2023-05-10T05:42:26.219Z,35.59
2023-05-10T05:43:26.142Z,43.79
2023-05-10T05:44:26.184Z,37.20
2023-05-10T05:45:26.676Z,40.59
2023-05-10T05:46:26.239Z,42.06
2023-05-10T05:47:26.293Z,44.93
2023-05-10T05:48:26.286Z,43.22
2023-05-10T05:49:26.774Z,49.94
2023-05-10T05:50:26.672Z,52.75
2023-05-10T05:51:26.373Z,55.46
2023-05-10T05:52:26.372Z,59.82
2023-05-10T05:53:26.402Z,61.52
2023-05-10T05:54:26.678Z,61.31
2023-05-10T05:55:26.448Z,70.88
2023-05-10T05:56:26.479Z,75.62
2023-05-10T05:57:29.740Z,87.47
2023-05-10T05:58:26.705Z,87.65
2023-05-10T05:59:26.691Z,88.28
2023-05-10T06:00:26.475Z,90.67
2023-05-10T06:01:26.488Z,94.53
2023-05-10T06:02:26.572Z,103.85
2023-05-10T06:03:26.676Z,107.02
2023-05-10T06:04:26.830Z,111.09
2023-05-10T06:05:27.002Z,118.28
2023-05-10T06:06:26.440Z,124.58
2023-05-10T06:07:26.431Z,125.60
2023-05-10T06:08:26.567Z,128.13
2023-05-10T06:09:26.474Z,133.65
2023-05-10T06:10:26.382Z,130.72
2023-05-10T06:11:26.385Z,139.17
2023-05-10T06:12:26.673Z,139.48
2023-05-10T06:13:26.473Z,148.03
2023-05-10T06:14:26.685Z,150.71
2023-05-10T06:15:26.690Z,151.76
2023-05-10T06:16:26.343Z,153.43
2023-05-10T06:17:26.366Z,159.70
2023-05-10T06:18:26.318Z,163.89
2023-05-10T06:19:26.312Z,167.01
2023-05-10T06:20:26.707Z,170.58
2023-05-10T06:21:26.327Z,174.24
2023-05-10T06:22:26.282Z,178.70
2023-05-10T06:23:26.264Z,180.54
2023-05-10T06:24:26.295Z,183.17
2023-05-10T06:25:26.258Z,187.74
2023-05-10T06:26:26.314Z,191.28
2023-05-10T06:27:26.358Z,194.93
2023-05-10T06:28:26.404Z,199.92
2023-05-10T06:29:26.684Z,202.09
2023-05-10T06:30:26.512Z,203.92
2023-05-10T06:31:26.611Z,207.21
2023-05-10T06:32:29.824Z,210.13
2023-05-10T06:33:26.617Z,210.37
2023-05-10T06:34:26.744Z,211.57
2023-05-10T06:35:26.535Z,212.74
2023-05-10T06:36:26.499Z,217.51
2023-05-10T06:37:26.511Z,224.29
2023-05-10T06:38:26.821Z,224.49
2023-05-10T06:39:26.425Z,227.33
2023-05-10T06:40:26.434Z,228.11
2023-05-10T06:41:26.394Z,234.74
2023-05-10T06:42:26.385Z,233.35
2023-05-10T06:43:26.688Z,236.10
2023-05-10T06:44:26.703Z,241.06
2023-05-10T06:45:26.693Z,240.19
2023-05-10T06:46:26.335Z,245.23
2023-05-10T06:47:26.327Z,247.84
2023-05-10T06:48:26.243Z,250.12
2023-05-10T06:49:26.696Z,246.11
2023-05-10T06:50:26.694Z,246.97
2023-05-10T06:51:26.208Z,243.82
2023-05-10T06:52:26.194Z,245.02
2023-05-10T06:53:26.192Z,248.65
2023-05-10T06:54:26.724Z,247.72
2023-05-10T06:55:26.258Z,247.22
2023-05-10T06:56:33.712Z,243.83
2023-05-10T06:57:31.636Z,244.22
2023-05-10T06:58:42.395Z,244.73
2023-05-10T06:59:26.343Z,244.91
2023-05-10T07:00:26.716Z,247.05
2023-05-10T07:01:26.306Z,248.39
2023-05-10T07:02:29.579Z,251.15
2023-05-10T07:03:26.209Z,244.33
2023-05-10T07:04:26.716Z,245.51
2023-05-10T07:05:26.263Z,247.58
2023-05-10T07:06:33.333Z,247.44
2023-05-10T07:07:26.168Z,244.33
2023-05-10T07:08:26.162Z,245.93
2023-05-10T07:09:26.166Z,247.07
2023-05-10T07:10:26.208Z,250.22
2023-05-10T07:11:26.124Z,253.63
2023-05-10T07:12:26.148Z,248.49
2023-05-10T07:13:26.082Z,247.47
2023-05-10T07:14:26.082Z,242.69
2023-05-10T07:15:26.069Z,245.23
2023-05-10T07:16:26.234Z,247.26
2023-05-10T07:17:26.213Z,244.48
2023-05-10T07:18:26.033Z,245.29
2023-05-10T07:19:25.999Z,245.06
2023-05-10T07:20:25.986Z,247.18
2023-05-10T07:21:26.244Z,246.22
2023-05-10T07:22:25.966Z,246.12
2023-05-10T07:23:25.961Z,244.65
2023-05-10T07:24:25.946Z,247.18
2023-05-10T07:25:25.962Z,247.23
2023-05-10T07:26:25.929Z,244.52
2023-05-10T07:27:26.210Z,249.14
2023-05-10T07:28:25.871Z,247.68
2023-05-10T07:29:26.212Z,243.90
2023-05-10T07:30:25.860Z,245.75
2023-05-10T07:31:25.814Z,245.21
2023-05-10T07:32:26.398Z,246.73
2023-05-10T07:33:26.803Z,247.32
2023-05-10T07:34:25.824Z,243.04
2023-05-10T07:35:26.243Z,245.25
2023-05-10T07:36:25.807Z,238.84
2023-05-10T07:37:25.774Z,241.27
2023-05-10T07:38:25.810Z,235.84
2023-05-10T07:39:28.240Z,236.43
2023-05-10T07:40:26.230Z,236.61
2023-05-10T07:41:25.771Z,237.42
2023-05-10T07:42:25.752Z,238.36
2023-05-10T07:43:25.726Z,238.56
2023-05-10T07:44:25.732Z,243.55
2023-05-10T07:45:25.671Z,242.96
2023-05-10T07:46:25.698Z,241.52
2023-05-10T07:47:25.700Z,245.15
2023-05-10T07:48:25.664Z,239.88
2023-05-10T07:49:25.795Z,245.26
2023-05-10T07:50:28.835Z,246.94
2023-05-10T07:51:25.599Z,247.31
2023-05-10T07:52:25.588Z,247.84
2023-05-10T07:53:25.671Z,249.56
2023-05-10T07:54:25.901Z,250.29
2023-05-10T07:55:25.559Z,252.86
2023-05-10T07:57:25.551Z,248.38
2023-05-10T07:58:25.472Z,249.64
2023-05-10T07:59:26.102Z,248.58
2023-05-10T08:00:25.734Z,251.36
2023-05-10T08:01:25.763Z,250.37
2023-05-10T08:02:25.486Z,250.00
2023-05-10T08:03:25.470Z,249.49
2023-05-10T08:04:25.426Z,248.86
2023-05-10T08:05:25.721Z,244.18
2023-05-10T08:06:25.387Z,247.83
2023-05-10T08:07:25.723Z,245.90
2023-05-10T08:08:25.397Z,242.85
2023-05-10T08:09:25.538Z,248.00
2023-05-10T08:10:25.344Z,246.36
2023-05-10T08:11:25.357Z,250.00
2023-05-10T08:12:25.314Z,246.69
2023-05-10T08:13:25.344Z,248.30
2023-05-10T08:14:25.307Z,245.76
2023-05-10T08:15:25.303Z,244.48
2023-05-10T08:16:25.372Z,247.59
2023-05-10T08:17:25.286Z,245.50
2023-05-10T08:18:25.294Z,245.62
2023-05-10T08:19:25.276Z,242.65
2023-05-10T08:20:25.739Z,241.46
2023-05-10T08:21:25.265Z,241.42
2023-05-10T08:22:25.254Z,241.86
2023-05-10T08:23:25.286Z,244.88
2023-05-10T08:24:25.306Z,246.79
2023-05-10T08:25:25.757Z,242.90
2023-05-10T08:26:25.322Z,241.71
2023-05-10T08:27:25.339Z,244.75
2023-05-10T08:28:25.336Z,242.07
2023-05-10T08:29:26.632Z,245.13
2023-05-10T08:30:25.359Z,242.49
2023-05-10T08:31:25.431Z,244.09
2023-05-10T08:32:25.401Z,240.18
2023-05-10T08:33:25.377Z,241.99
2023-05-10T08:34:26.122Z,241.41
2023-05-10T08:35:25.745Z,238.74
2023-05-10T08:36:25.533Z,241.39
2023-05-10T08:37:25.433Z,239.31
2023-05-10T08:38:57.264Z,236.18
2023-05-10T08:39:30.372Z,236.60
2023-05-10T08:40:26.195Z,236.93
2023-05-10T08:41:25.748Z,236.90
2023-05-10T08:42:41.035Z,237.49
2023-05-10T08:43:57.337Z,236.85
2023-05-10T08:44:25.415Z,237.01
2023-05-10T08:45:25.419Z,238.28
2023-05-10T08:46:25.427Z,240.04
2023-05-10T08:47:25.399Z,239.83
2023-05-10T08:48:25.354Z,239.94
2023-05-10T08:49:25.359Z,237.08
2023-05-10T08:50:25.745Z,233.88
2023-05-10T08:51:25.309Z,238.17
2023-05-10T08:52:25.312Z,235.53
2023-05-10T08:53:25.301Z,233.64
2023-05-10T08:54:25.278Z,235.57
2023-05-10T08:55:25.795Z,232.10
2023-05-10T08:56:25.852Z,232.61
2023-05-10T08:57:25.248Z,231.57
2023-05-10T08:58:25.281Z,228.86
2023-05-10T08:59:25.211Z,230.58
2023-05-10T09:00:25.200Z,227.53
2023-05-10T09:01:25.372Z,229.40
2023-05-10T09:02:25.638Z,224.71
2023-05-10T09:03:25.150Z,227.83
2023-05-10T09:04:25.322Z,226.79
2023-05-10T09:05:25.273Z,224.79
2023-05-10T09:06:25.120Z,223.55
2023-05-10T09:07:25.106Z,224.53
2023-05-10T09:08:25.108Z,224.35
2023-05-10T09:09:25.254Z,221.11
2023-05-10T09:10:25.106Z,222.22
2023-05-10T09:11:25.095Z,222.59
2023-05-10T09:12:25.079Z,220.10
2023-05-10T09:13:25.061Z,221.33
2023-05-10T09:14:25.056Z,219.99
2023-05-10T09:15:25.261Z,219.16
2023-05-10T09:16:26.080Z,220.25
2023-05-10T09:17:25.201Z,219.17
2023-05-10T09:18:27.242Z,218.17
2023-05-10T09:19:25.009Z,218.30
2023-05-10T09:20:25.301Z,216.77
2023-05-10T09:21:25.037Z,216.90
2023-05-10T09:22:25.010Z,217.01
2023-05-10T09:23:24.993Z,217.50
2023-05-10T09:24:24.957Z,216.15
2023-05-10T09:25:25.258Z,214.11
2023-05-10T09:26:24.933Z,215.61
2023-05-10T09:27:24.911Z,212.42
2023-05-10T09:28:25.008Z,214.05
2023-05-10T09:29:25.268Z,212.15
2023-05-10T09:30:24.862Z,217.98
2023-05-10T09:31:24.928Z,216.98
2023-05-10T09:32:24.872Z,213.53
2023-05-10T09:33:56.664Z,199.54
2023-05-10T09:34:25.259Z,199.68
2023-05-10T09:35:27.213Z,182.10
2023-05-10T09:36:24.906Z,197.57
2023-05-10T09:37:24.890Z,178.80
2023-05-10T09:38:25.269Z,183.90
2023-05-10T09:39:24.923Z,185.88
2023-05-10T09:40:24.985Z,168.55
2023-05-10T09:41:24.945Z,152.40
2023-05-10T09:42:24.976Z,146.48
2023-05-10T09:43:25.258Z,139.38
2023-05-10T09:44:25.069Z,137.84
2023-05-10T09:45:25.268Z,154.05
2023-05-10T09:46:25.222Z,178.35
2023-05-10T09:47:25.233Z,199.75
2023-05-10T09:48:25.215Z,220.75
2023-05-10T09:49:25.248Z,236.09
2023-05-10T09:50:25.223Z,248.62
2023-05-10T09:51:25.252Z,249.76
2023-05-10T09:52:25.280Z,250.00
2023-05-10T09:53:25.856Z,247.64
2023-05-10T09:54:25.428Z,250.00
2023-05-10T09:55:25.469Z,248.76
2023-05-10T09:56:25.512Z,249.56
2023-05-10T09:57:25.579Z,249.99
2023-05-10T09:58:25.618Z,250.00
2023-05-10T09:59:33.064Z,250.04
2023-05-10T10:00:25.873Z,250.46
2023-05-10T10:01:25.669Z,252.55
2023-05-10T10:02:25.626Z,255.74
2023-05-10T10:03:25.592Z,263.30
2023-05-10T10:04:25.602Z,272.46
2023-05-10T10:05:25.599Z,253.37
2023-05-10T10:06:30.142Z,250.00
2023-05-10T10:07:25.518Z,250.45
2023-05-10T10:08:25.493Z,251.82
2023-05-10T10:09:25.469Z,253.93
2023-05-10T10:10:25.777Z,259.23
2023-05-10T10:11:25.430Z,268.69
2023-05-10T10:12:25.422Z,251.00
2023-05-10T10:13:25.398Z,249.12
2023-05-10T10:14:25.395Z,249.67
2023-05-10T10:15:25.818Z,249.79
2023-05-10T10:16:25.402Z,249.44
2023-05-10T10:17:25.354Z,249.47
2023-05-10T10:18:25.329Z,250.00
2023-05-10T10:19:25.281Z,249.81
2023-05-10T10:20:25.240Z,249.95
2023-05-10T10:21:25.345Z,248.83
2023-05-10T10:22:25.191Z,250.00
2023-05-10T10:23:25.189Z,249.15
2023-05-10T10:24:25.153Z,250.01
2023-05-10T10:25:25.117Z,249.83
2023-05-10T10:26:25.304Z,248.93
2023-05-10T10:27:25.041Z,247.74
2023-05-10T10:28:26.131Z,249.44
2023-05-10T10:29:28.169Z,249.65
2023-05-10T10:30:28.166Z,249.88
2023-05-10T10:31:25.354Z,249.99
2023-05-10T10:32:24.940Z,251.25
2023-05-10T10:33:28.896Z,252.90
2023-05-10T10:34:24.846Z,250.01
2023-05-10T10:35:24.827Z,251.51
2023-05-10T10:36:25.286Z,253.25
2023-05-10T10:37:24.808Z,255.80
2023-05-10T10:38:24.765Z,258.16
2023-05-10T10:39:24.786Z,249.65
2023-05-10T10:40:24.750Z,248.16
2023-05-10T10:41:24.800Z,248.90
2023-05-10T10:42:24.767Z,248.45
2023-05-10T10:43:24.813Z,248.72
2023-05-10T10:44:24.785Z,247.37
2023-05-10T10:45:24.780Z,250.00
2023-05-10T10:46:24.818Z,249.21
2023-05-10T10:47:24.814Z,250.00
2023-05-10T10:48:24.807Z,247.61
2023-05-10T10:49:24.800Z,247.33
2023-05-10T10:50:24.815Z,247.50
2023-05-10T10:51:25.301Z,248.09
2023-05-10T10:52:24.844Z,248.54
2023-05-10T10:53:24.903Z,246.95
2023-05-10T10:54:24.821Z,250.00
2023-05-10T10:55:24.814Z,248.06
2023-05-10T10:56:24.805Z,248.89
2023-05-10T10:57:24.800Z,248.88
2023-05-10T10:58:24.800Z,248.59
2023-05-10T10:59:24.787Z,246.85
2023-05-10T11:00:24.780Z,248.26
2023-05-10T11:01:24.838Z,247.82
2023-05-10T11:02:24.785Z,248.35
2023-05-10T11:03:24.752Z,248.55
2023-05-10T11:04:24.772Z,249.15
2023-05-10T11:05:24.729Z,249.90
2023-05-10T11:06:24.716Z,248.92
2023-05-10T11:07:24.719Z,247.07
2023-05-10T11:08:24.696Z,247.58
2023-05-10T11:09:24.730Z,247.46
2023-05-10T11:10:24.697Z,247.83
2023-05-10T11:11:24.689Z,249.13
2023-05-10T11:12:24.684Z,246.90
2023-05-10T11:13:24.684Z,244.97
2023-05-10T11:14:24.708Z,246.69
2023-05-10T11:15:25.410Z,245.03
2023-05-10T11:16:24.903Z,247.45
2023-05-10T11:17:24.737Z,248.61
2023-05-10T11:18:24.794Z,247.88
2023-05-10T11:19:24.763Z,248.26
2023-05-10T11:20:24.776Z,246.71
2023-05-10T11:21:24.815Z,244.31
2023-05-10T11:22:24.808Z,246.48
2023-05-10T11:23:24.825Z,245.53
2023-05-10T11:24:24.843Z,245.90
2023-05-10T11:25:24.891Z,245.13
2023-05-10T11:26:24.896Z,244.84
2023-05-10T11:27:24.928Z,243.86
2023-05-10T11:28:24.939Z,244.83
2023-05-10T11:29:24.967Z,243.35
2023-05-10T11:30:25.025Z,243.22
2023-05-10T11:31:25.183Z,243.56
2023-05-10T11:32:25.158Z,243.00
2023-05-10T11:33:25.102Z,242.93
2023-05-10T11:34:25.157Z,242.23
2023-05-10T11:35:25.153Z,240.53
2023-05-10T11:36:25.174Z,243.41
2023-05-10T11:37:25.200Z,242.24
2023-05-10T11:38:25.224Z,240.19
2023-05-10T11:39:25.253Z,240.32
2023-05-10T11:40:25.287Z,238.63
2023-05-10T11:41:25.342Z,240.19
2023-05-10T11:42:25.350Z,237.40
2023-05-10T11:43:25.390Z,237.51
2023-05-10T11:44:25.474Z,237.22
2023-05-10T11:45:25.473Z,236.11
2023-05-10T11:46:25.665Z,235.07
2023-05-10T11:47:25.594Z,235.18
2023-05-10T11:48:25.577Z,235.97
2023-05-10T11:49:25.624Z,235.43
2023-05-10T11:50:25.655Z,235.95
2023-05-10T11:51:25.703Z,235.61
2023-05-10T11:52:25.743Z,236.89
2023-05-10T11:53:26.002Z,235.39
2023-05-10T11:54:25.819Z,234.95
2023-05-10T11:55:25.880Z,234.39
2023-05-10T11:56:25.902Z,234.74
2023-05-10T11:57:26.026Z,234.27
2023-05-10T11:58:25.992Z,235.61
2023-05-10T11:59:26.042Z,235.09
2023-05-10T12:00:26.081Z,235.04
2023-05-10T12:01:26.319Z,233.98
2023-05-10T12:02:26.243Z,234.05
2023-05-10T12:03:26.333Z,234.32
2023-05-10T12:04:26.248Z,233.46
2023-05-10T12:05:26.285Z,232.80
2023-05-10T12:06:26.335Z,232.98
2023-05-10T12:07:26.379Z,232.00
2023-05-10T12:08:26.427Z,232.34
2023-05-10T12:09:35.900Z,231.27
2023-05-10T12:10:26.448Z,231.47
2023-05-10T12:11:26.422Z,232.07
2023-05-10T12:12:26.388Z,232.27
2023-05-10T12:13:26.397Z,231.89
2023-05-10T12:14:26.366Z,230.25
2023-05-10T12:15:26.353Z,230.40
2023-05-10T12:16:26.877Z,229.14
2023-05-10T12:17:26.351Z,230.22
2023-05-10T12:18:26.416Z,231.44
2023-05-10T12:19:26.306Z,228.41
2023-05-10T12:20:26.293Z,228.75
2023-05-10T12:21:26.287Z,228.44
2023-05-10T12:22:26.328Z,227.21
2023-05-10T12:23:26.253Z,226.44
2023-05-10T12:24:26.241Z,226.97
2023-05-10T12:25:26.218Z,224.60
2023-05-10T12:26:27.196Z,224.70
2023-05-10T12:27:26.186Z,223.48
2023-05-10T12:28:26.163Z,224.27
2023-05-10T12:29:26.166Z,224.22
2023-05-10T12:30:26.118Z,222.50
2023-05-10T12:31:26.132Z,223.04
2023-05-10T12:32:26.166Z,222.10
2023-05-10T12:33:26.140Z,222.23
2023-05-10T12:34:26.196Z,222.43
2023-05-10T12:35:26.241Z,220.65
2023-05-10T12:36:26.294Z,220.55
2023-05-10T12:37:26.359Z,220.58
2023-05-10T12:38:26.376Z,220.15
2023-05-10T12:39:26.432Z,219.70
2023-05-10T12:40:26.488Z,219.14
2023-05-10T12:41:26.532Z,218.74